Hockley, Texas
Current Conditions -  °F | °C
As of 1:53 AM on Tuesday 27 Jan 2015 (Local Time) from KDWH Reporting Station
Clear Clear  
Wind Chill: 52°   Ceiling: Unl
Heat Index: 52°   Visibility: 10mi
Dew Point: 42°   Wind: 5mph
Humidity: 69%   Direction: 250°WSW
Pressure: 30.13"   Gusts: NA
Location:  30.03°N, 95.84°W
Report Text: KDWH 270753Z 25004KT 10SM CLR 11/06 A3013 RMK AO2 SLP202 T01110056
Loading
Personal Weather Stations






























Interactive Weather Map New forecast layout! Learn more

10-Day Weather Forecast

Advertisements
Track Severe Weather on mobile